Terminal Aerodrome Forecast
Issued by NWS

Home | Current Version | Previous Version | Graphics & Text | Print | Product List | Glossary On
Versions: 1 2 3 4 5 6 7 8 9 10 11 12 13 14 15 16 17
453
FTUS43 KMPX 242323
TAFRNH
TAF
KRNH 242323Z 2500/2524 35014G23KT P6SM BKN035
     FM250500 33013KT P6SM SKC
     FM251400 31012KT P6SM SCT100=

USA.gov is the U.S. government's official web portal to all federal, state and local government web resources and services.